createdAt,value
2019-01-25T04:08:51.761Z,33.07
2019-01-25T04:11:33.089Z,38.50
2019-01-25T04:14:14.307Z,37.30
2019-01-25T04:16:55.795Z,39.00
2019-01-25T04:19:37.204Z,34.37
2019-01-25T04:22:18.705Z,32.60
2019-01-25T04:24:58.649Z,37.43
2019-01-25T04:27:47.174Z,36.40
2019-01-25T04:30:28.117Z,36.90
2019-01-25T04:33:09.500Z,33.17
2019-01-25T04:35:50.538Z,34.60
2019-01-25T04:38:31.569Z,32.63
2019-01-25T04:41:13.106Z,34.67
2019-01-25T04:43:54.611Z,34.60
2019-01-25T04:46:35.449Z,32.97
2019-01-25T04:49:16.073Z,35.73
2019-01-25T04:51:57.552Z,34.50
2019-01-25T04:54:38.913Z,37.03
2019-01-25T05:06:15.999Z,38.80
2019-01-25T05:08:57.290Z,37.00
2019-01-25T05:11:36.724Z,37.77
2019-01-25T05:14:25.184Z,36.87
2019-01-25T05:17:05.035Z,42.27
2019-01-25T05:19:53.604Z,37.00
2019-01-25T05:22:34.896Z,35.80
2019-01-25T05:25:15.891Z,40.90
2019-01-25T05:27:57.040Z,37.90
2019-01-25T05:30:38.653Z,37.03
2019-01-25T05:33:19.481Z,38.47
2019-01-25T05:36:00.720Z,41.30
2019-01-25T05:38:43.956Z,40.43
2019-01-25T05:41:32.451Z,42.97
2019-01-25T05:44:13.903Z,41.73
2019-01-25T05:46:54.614Z,38.97
2019-01-25T05:49:35.610Z,37.60
2019-01-25T05:52:16.937Z,45.97
2019-01-25T05:54:57.673Z,42.30
2019-01-25T05:57:38.644Z,43.50
2019-01-25T06:03:14.619Z,47.07
2019-01-25T06:05:57.891Z,47.73
2019-01-25T06:08:43.851Z,47.70
2019-01-25T06:11:21.333Z,46.80
2019-01-25T06:14:02.794Z,48.93
2019-01-25T06:16:44.309Z,43.20
2019-01-25T06:19:25.360Z,49.00
2019-01-25T06:22:06.473Z,44.27
2019-01-25T06:24:47.880Z,45.80
2019-01-25T06:27:28.602Z,48.20
2019-01-25T06:30:10.520Z,49.17
2019-01-25T06:32:51.550Z,44.20
2019-01-25T06:35:32.890Z,51.27
2019-01-25T06:38:14.333Z,49.97
2019-01-25T06:40:55.296Z,52.23
2019-01-25T06:43:36.621Z,53.60
2019-01-25T06:46:17.967Z,58.33
2019-01-25T06:48:59.069Z,50.93
2019-01-25T06:51:40.205Z,47.27
2019-01-25T06:54:21.341Z,54.20
2019-01-25T06:57:02.583Z,51.27
2019-01-25T06:59:51.065Z,49.07
2019-01-25T07:02:35.915Z,44.53
2019-01-25T07:05:16.427Z,46.73
2019-01-25T07:07:57.113Z,46.60
2019-01-25T07:10:38.607Z,50.97
2019-01-25T07:13:19.916Z,50.97
2019-01-25T07:16:00.461Z,43.60
2019-01-25T07:18:41.512Z,43.07
2019-01-25T07:21:22.876Z,38.97
2019-01-25T07:24:03.816Z,41.53
2019-01-25T07:26:44.507Z,40.00
2019-01-25T07:29:25.936Z,37.90
2019-01-25T07:32:07.265Z,40.40
2019-01-25T07:34:48.301Z,38.93
2019-01-25T07:37:27.919Z,37.60
2019-01-25T07:40:09.386Z,32.30
2019-01-25T07:42:50.847Z,36.50
2019-01-25T07:45:31.930Z,37.97
2019-01-25T07:48:13.272Z,45.23
2019-01-25T07:50:53.931Z,44.50
2019-01-25T07:53:35.693Z,40.17
2019-01-25T07:56:16.468Z,40.70
2019-01-25T07:58:57.155Z,46.67
2019-01-25T08:01:38.733Z,34.13
2019-01-25T08:04:20.028Z,47.90
2019-01-25T08:07:01.069Z,52.53
2019-01-25T08:09:41.690Z,45.00
2019-01-25T08:12:22.370Z,45.70
2019-01-25T08:15:03.585Z,31.83
2019-01-25T08:17:44.818Z,51.97
2019-01-25T08:20:25.440Z,37.63
2019-01-25T08:23:06.850Z,39.57
2019-01-25T08:25:48.520Z,48.03
2019-01-25T08:28:29.277Z,44.30
2019-01-25T08:31:10.752Z,42.53
2019-01-25T08:33:50.985Z,36.27
2019-01-25T08:39:40.124Z,41.83
2019-01-25T08:42:21.568Z,42.67
2019-01-25T08:45:03.078Z,44.73
2019-01-25T08:47:44.285Z,32.93
2019-01-25T08:50:25.416Z,37.20
2019-01-25T08:53:06.776Z,46.77
2019-01-25T08:55:48.136Z,41.10
2019-01-25T08:58:29.396Z,42.80
2019-01-25T09:01:10.519Z,52.80
2019-01-25T09:03:50.640Z,40.53
2019-01-25T09:06:29.084Z,31.50
2019-01-25T09:09:09.144Z,39.77
2019-01-25T09:11:49.429Z,41.23
2019-01-25T09:14:29.660Z,37.73
2019-01-25T09:17:08.178Z,38.87
2019-01-25T09:19:49.295Z,33.60
2019-01-25T09:22:30.441Z,32.87
2019-01-25T09:25:11.414Z,38.67
2019-01-25T09:27:52.275Z,37.03
2019-01-25T09:30:33.654Z,45.43
2019-01-25T10:23:53.920Z,48.43
2019-01-25T10:26:34.344Z,32.57
2019-01-25T10:29:15.536Z,39.07
2019-01-25T10:31:54.958Z,43.30
2019-01-25T10:34:36.372Z,40.43
2019-01-25T10:37:14.915Z,37.10
2019-01-25T11:09:41.984Z,40.23
2019-01-25T11:12:22.150Z,38.90
2019-01-25T11:15:02.316Z,39.93
2019-01-25T11:17:42.454Z,38.50
2019-01-25T11:20:20.987Z,39.03
2019-01-25T11:23:01.064Z,45.20
2019-01-25T11:25:39.408Z,38.03
2019-01-25T11:28:17.834Z,33.70
2019-01-25T16:04:45.034Z,42.10
2019-01-25T16:07:26.154Z,40.13
2019-01-25T16:10:07.150Z,40.10
2019-01-25T16:12:48.542Z,38.80
2019-01-25T16:15:29.257Z,44.20
2019-01-25T16:18:10.760Z,41.13
2019-01-25T16:20:51.634Z,46.53
2019-01-25T16:23:31.761Z,48.17
2019-01-25T16:26:12.959Z,39.07
2019-01-25T16:28:52.475Z,45.43
2019-01-25T16:31:33.365Z,46.13
2019-01-25T16:34:14.198Z,40.07
2019-01-25T16:36:55.640Z,41.30
2019-01-25T16:39:37.065Z,47.20
2019-01-25T16:42:17.950Z,49.83
2019-01-25T16:44:59.025Z,49.80
2019-01-25T16:47:40.299Z,38.33
2019-01-25T16:50:23.751Z,40.77
2019-01-25T16:53:03.284Z,37.63
2019-01-25T16:55:44.685Z,44.80
2019-01-25T16:58:26.094Z,44.07
2019-01-25T17:01:07.598Z,47.17
2019-01-25T17:03:48.419Z,41.43
2019-01-25T17:06:29.660Z,55.27
2019-01-25T17:09:10.302Z,63.40
2019-01-25T17:11:51.879Z,57.50
2019-01-25T17:14:33.588Z,44.50
2019-01-25T17:17:14.440Z,55.17
2019-01-25T17:19:55.174Z,62.13
2019-01-25T17:22:36.598Z,40.37
2019-01-25T17:25:17.268Z,50.00
2019-01-25T17:27:58.756Z,52.27
2019-01-25T17:30:40.157Z,49.27
2019-01-25T17:33:20.940Z,65.07
2019-01-25T17:36:02.001Z,71.63
2019-01-25T17:38:43.371Z,55.50
2019-01-25T17:41:24.670Z,55.97
2019-01-25T17:44:04.695Z,58.53
2019-01-25T17:46:45.497Z,73.13
2019-01-25T17:49:26.791Z,73.77
2019-01-25T17:52:07.604Z,59.27
2019-01-25T17:54:49.179Z,62.63
2019-01-25T17:57:30.410Z,64.73
2019-01-25T18:00:12.220Z,63.20
2019-01-25T18:02:52.991Z,58.37
2019-01-25T18:05:34.783Z,57.17
2019-01-25T18:08:15.801Z,48.77
2019-01-25T18:10:57.239Z,53.73
2019-01-25T18:13:38.736Z,51.63
2019-01-25T18:16:19.996Z,49.93
2019-01-25T19:15:31.581Z,56.53
2019-01-25T19:18:12.881Z,57.93
2019-01-25T19:20:53.894Z,48.50
2019-01-25T19:23:35.355Z,57.60
2019-01-25T19:26:16.628Z,48.87
2019-01-25T19:28:58.030Z,61.53
2019-01-25T19:31:39.116Z,54.43
2019-01-25T19:34:20.590Z,59.53
2019-01-25T19:37:02.806Z,60.37
2019-01-25T19:39:43.977Z,57.30
2019-01-25T19:42:25.098Z,61.23
2019-01-25T19:45:11.819Z,55.90
2019-01-25T19:47:49.543Z,69.13
2019-01-25T19:50:31.146Z,53.90
2019-01-25T19:53:12.438Z,51.47
2019-01-25T19:55:53.869Z,54.70
2019-01-25T19:58:34.446Z,52.40
2019-01-25T20:01:16.026Z,60.67
2019-01-25T20:03:57.472Z,62.90
2019-01-25T20:06:38.664Z,59.93
2019-01-25T20:09:20.170Z,51.03
2019-01-25T20:12:01.736Z,51.43
2019-01-25T20:14:42.743Z,46.90
2019-01-25T20:17:22.835Z,47.03
2019-01-25T20:20:03.741Z,59.47
2019-01-25T20:22:45.046Z,55.03
2019-01-25T20:25:26.428Z,58.80
2019-01-25T20:28:06.486Z,51.07
2019-01-25T20:30:49.749Z,57.27
2019-01-25T20:33:30.443Z,55.40
2019-01-25T20:36:11.879Z,62.67
2019-01-25T20:38:53.353Z,47.43
2019-01-25T20:41:34.332Z,47.23
2019-01-25T20:44:15.160Z,53.10
2019-01-25T20:46:56.075Z,46.03
2019-01-25T20:49:37.331Z,46.23
2019-01-25T20:52:17.937Z,49.23
2019-01-25T20:54:59.231Z,53.40
2019-01-25T20:57:39.865Z,55.93
2019-01-25T21:00:20.663Z,47.30
2019-01-25T21:03:01.911Z,52.90
2019-01-25T21:05:43.293Z,50.97
2019-01-25T21:08:24.237Z,46.87
2019-01-25T21:11:05.407Z,52.30
2019-01-25T21:13:46.130Z,51.77
2019-01-25T21:16:26.876Z,53.40
2019-01-25T21:19:07.618Z,45.47
2019-01-25T21:21:48.252Z,46.87
2019-01-25T21:24:29.755Z,50.30
2019-01-25T21:27:10.483Z,42.47
2019-01-25T21:29:51.980Z,52.20
2019-01-25T21:32:33.387Z,55.23
2019-01-25T21:35:14.118Z,50.57
2019-01-25T21:37:55.468Z,48.93
2019-01-25T21:40:36.711Z,50.80
2019-01-25T21:43:17.483Z,53.43
2019-01-25T21:45:58.210Z,50.90
2019-01-25T21:48:38.957Z,50.03
2019-01-25T21:51:18.893Z,52.00
2019-01-25T21:54:07.396Z,48.90
2019-01-25T21:56:48.700Z,43.37
2019-01-25T21:59:30.187Z,44.50
2019-01-25T22:02:11.005Z,46.27
2019-01-25T22:04:51.499Z,50.10
2019-01-25T22:07:30.990Z,52.93
2019-01-25T22:10:20.659Z,53.70
2019-01-25T22:13:01.192Z,50.70
2019-01-25T22:15:40.686Z,52.37
2019-01-25T22:18:21.398Z,54.93
2019-01-25T22:21:02.580Z,58.27
2019-01-25T22:23:43.901Z,57.20
2019-01-25T22:26:25.138Z,61.50
2019-01-25T22:29:04.764Z,59.10
2019-01-25T22:34:59.350Z,57.30
2019-01-25T22:37:40.355Z,62.10
2019-01-25T22:40:20.999Z,64.27
2019-01-25T22:43:00.573Z,63.67
2019-01-25T22:45:42.137Z,57.13
2019-01-25T22:48:23.531Z,62.90
2019-01-25T22:51:04.795Z,64.80
2019-01-25T22:53:45.523Z,63.77
2019-01-25T22:56:26.060Z,65.40
2019-01-25T22:59:07.355Z,64.97
2019-01-25T23:01:48.410Z,62.60
2019-01-25T23:04:49.180Z,61.90
2019-01-25T23:07:30.719Z,66.87
2019-01-25T23:10:11.854Z,65.77
2019-01-25T23:12:53.165Z,64.43
2019-01-25T23:15:34.405Z,66.17
2019-01-25T23:18:15.423Z,72.60
2019-01-25T23:20:56.751Z,72.07
2019-01-25T23:23:37.780Z,68.70
2019-01-25T23:26:18.582Z,72.43
2019-01-25T23:29:00.140Z,75.13
2019-01-25T23:31:40.783Z,74.00
2019-01-25T23:34:22.274Z,79.23
2019-01-25T23:37:03.609Z,83.03
2019-01-25T23:39:44.647Z,78.33
2019-01-25T23:42:24.041Z,80.03
2019-01-25T23:45:05.314Z,74.80
2019-01-25T23:47:46.193Z,73.90
2019-01-25T23:50:27.213Z,85.30
2019-01-25T23:53:07.903Z,84.07
2019-01-25T23:55:49.294Z,88.10
2019-01-25T23:58:30.706Z,77.37
